createdAt,value
2022-12-11T00:00:06.285Z,86.72
2022-12-11T00:02:32.783Z,86.59
2022-12-11T00:04:59.286Z,87.21
2022-12-11T00:07:25.814Z,88.00
2022-12-11T00:09:52.417Z,86.52
2022-12-11T00:12:18.930Z,87.56
2022-12-11T00:14:45.389Z,87.07
2022-12-11T00:17:11.977Z,87.05
2022-12-11T00:19:38.463Z,86.57
2022-12-11T00:22:04.953Z,87.69
2022-12-11T00:24:31.554Z,87.37
2022-12-11T00:26:59.030Z,86.26
2022-12-11T00:29:25.511Z,86.34
2022-12-11T00:31:52.049Z,86.43
2022-12-11T00:34:18.559Z,87.21
2022-12-11T00:36:45.101Z,87.74
2022-12-11T00:39:11.614Z,87.05
2022-12-11T00:41:38.120Z,87.42
2022-12-11T00:44:04.854Z,87.57
2022-12-11T00:46:32.470Z,86.69
2022-12-11T00:48:58.952Z,87.09
2022-12-11T00:51:25.593Z,87.00
2022-12-11T00:53:52.384Z,86.31
2022-12-11T00:56:21.226Z,86.80
2022-12-11T00:58:49.099Z,86.97
2022-12-11T01:01:21.729Z,86.66
2022-12-11T01:03:48.676Z,87.45
2022-12-11T01:06:22.300Z,86.35
2022-12-11T01:08:49.442Z,87.86
2022-12-11T01:11:16.829Z,87.11
2022-12-11T01:13:43.428Z,87.02
2022-12-11T01:16:13.303Z,86.28
2022-12-11T01:18:40.258Z,86.67
2022-12-11T01:21:08.663Z,86.73
2022-12-11T01:23:35.230Z,87.40
2022-12-11T01:26:10.305Z,86.95
2022-12-11T01:28:36.963Z,86.30
2022-12-11T01:31:08.210Z,86.70
2022-12-11T01:33:34.795Z,87.74
2022-12-11T01:36:01.267Z,87.11
2022-12-11T01:38:27.794Z,86.56
2022-12-11T01:40:54.261Z,87.09
2022-12-11T01:43:20.826Z,87.03
2022-12-11T01:45:48.741Z,86.09
2022-12-11T01:48:23.538Z,86.47
2022-12-11T01:50:53.599Z,87.67
2022-12-11T01:53:25.191Z,87.65
2022-12-11T01:55:54.849Z,86.14
2022-12-11T01:58:25.869Z,86.82
2022-12-11T02:00:53.224Z,85.92
2022-12-11T02:03:19.785Z,87.15
2022-12-11T02:05:46.364Z,86.24
2022-12-11T02:08:12.921Z,87.43
2022-12-11T02:11:20.815Z,86.20
2022-12-11T02:14:17.169Z,86.81
2022-12-11T02:16:51.940Z,86.46
2022-12-11T02:19:45.213Z,86.11
2022-12-11T02:22:19.253Z,86.48
2022-12-11T02:25:18.081Z,86.53
2022-12-11T02:27:52.325Z,86.41
2022-12-11T02:30:19.096Z,86.86
2022-12-11T02:32:47.905Z,86.42
2022-12-11T02:35:19.116Z,87.19
2022-12-11T02:37:47.957Z,87.55
2022-12-11T02:40:19.209Z,86.69
2022-12-11T02:42:48.703Z,87.08
2022-12-11T02:45:16.968Z,87.43
2022-12-11T02:47:47.107Z,86.69
2022-12-11T02:50:17.250Z,87.68
2022-12-11T02:52:46.091Z,87.73
2022-12-11T02:55:15.393Z,86.42
2022-12-11T02:57:52.791Z,86.57
2022-12-11T03:00:19.665Z,86.87
2022-12-11T03:02:46.433Z,86.88
2022-12-11T03:05:14.328Z,86.94
2022-12-11T03:07:43.348Z,87.78
2022-12-11T03:10:12.148Z,86.46
2022-12-11T03:12:41.910Z,87.10
2022-12-11T03:15:13.190Z,87.30
2022-12-11T03:17:47.066Z,87.04
2022-12-11T03:20:22.752Z,86.78
2022-12-11T03:23:20.023Z,86.33
2022-12-11T03:25:56.144Z,86.73
2022-12-11T03:28:31.801Z,86.73
2022-12-11T03:31:05.597Z,85.96
2022-12-11T03:33:42.631Z,87.39
2022-12-11T03:36:18.838Z,86.94
2022-12-11T03:38:57.570Z,87.21
2022-12-11T03:41:27.408Z,86.93
2022-12-11T03:43:57.041Z,86.45
2022-12-11T03:46:29.943Z,87.06
2022-12-11T03:49:01.491Z,86.73
2022-12-11T03:51:30.966Z,87.02
2022-12-11T03:53:58.395Z,87.41
2022-12-11T03:56:28.515Z,87.67
2022-12-11T03:58:55.074Z,86.29
2022-12-11T04:01:21.582Z,87.18
2022-12-11T04:03:48.159Z,87.20
2022-12-11T04:06:14.626Z,86.60
2022-12-11T04:08:41.120Z,86.93
2022-12-11T04:11:07.619Z,86.26
2022-12-11T04:13:34.157Z,87.12
2022-12-11T04:16:00.711Z,86.41
2022-12-11T04:18:27.250Z,86.27
2022-12-11T04:20:55.270Z,85.88
2022-12-11T04:23:21.810Z,87.44
2022-12-11T04:25:48.281Z,86.76
2022-12-11T04:28:14.857Z,86.58
2022-12-11T04:30:41.531Z,87.27
2022-12-11T04:33:08.135Z,86.65
2022-12-11T04:35:34.601Z,86.93
2022-12-11T04:38:01.121Z,86.29
2022-12-11T04:40:27.638Z,86.74
2022-12-11T04:42:54.108Z,87.49
2022-12-11T04:45:20.631Z,86.22
2022-12-11T04:47:47.115Z,86.24
2022-12-11T04:50:15.231Z,86.40
2022-12-11T04:52:42.585Z,85.99
2022-12-11T04:55:11.108Z,86.85
2022-12-11T04:57:38.231Z,86.11
2022-12-11T05:00:07.691Z,87.27
2022-12-11T05:02:35.851Z,86.59
2022-12-11T05:05:04.278Z,86.59
2022-12-11T05:07:30.826Z,86.94
2022-12-11T05:09:57.408Z,86.59
2022-12-11T05:12:23.924Z,87.06
2022-12-11T05:14:54.482Z,87.32
2022-12-11T05:17:22.374Z,86.93
2022-12-11T05:19:49.918Z,87.06
2022-12-11T05:22:17.601Z,87.06
2022-12-11T05:24:45.256Z,87.00
2022-12-11T05:27:12.253Z,87.02
2022-12-11T05:29:38.736Z,86.31
2022-12-11T05:32:05.451Z,85.98
2022-12-11T05:34:31.980Z,85.96
2022-12-11T05:36:58.514Z,87.42
2022-12-11T05:39:24.957Z,86.44
2022-12-11T05:41:51.441Z,87.49
2022-12-11T05:44:17.928Z,86.68
2022-12-11T05:46:44.480Z,86.58
2022-12-11T05:49:11.066Z,86.46
2022-12-11T05:51:37.598Z,86.76
2022-12-11T05:54:04.267Z,86.27
2022-12-11T05:56:33.379Z,85.81
2022-12-11T05:59:02.019Z,87.13
2022-12-11T06:01:31.679Z,85.76
2022-12-11T06:03:58.934Z,85.88
2022-12-11T06:06:26.402Z,85.90
2022-12-11T06:08:54.521Z,86.72
2022-12-11T06:11:24.083Z,87.14
2022-12-11T06:13:51.513Z,86.70
2022-12-11T06:16:18.131Z,85.77
2022-12-11T06:18:45.642Z,86.39
2022-12-11T06:21:19.516Z,85.95
2022-12-11T06:23:47.984Z,87.18
2022-12-11T06:26:15.346Z,87.15
2022-12-11T06:28:41.903Z,86.80
2022-12-11T06:31:08.521Z,86.89
2022-12-11T06:33:35.838Z,87.93
2022-12-11T06:36:07.654Z,87.04
2022-12-11T06:38:34.302Z,87.83
2022-12-11T06:41:02.682Z,87.23
2022-12-11T06:43:29.152Z,86.30
2022-12-11T06:46:00.607Z,86.56
2022-12-11T06:48:30.031Z,87.46
2022-12-11T06:50:56.564Z,87.08
2022-12-11T06:53:23.113Z,86.73
2022-12-11T06:55:49.582Z,88.23
2022-12-11T06:58:16.178Z,87.80
2022-12-11T07:00:42.713Z,87.68
2022-12-11T07:03:10.089Z,88.20
2022-12-11T07:05:36.608Z,89.31
2022-12-11T07:08:03.188Z,88.91
2022-12-11T07:10:29.738Z,89.02
2022-12-11T07:12:56.318Z,89.23
2022-12-11T07:15:22.844Z,89.04
2022-12-11T07:17:49.412Z,89.38
2022-12-11T07:20:16.046Z,89.98
2022-12-11T07:22:46.421Z,90.24
2022-12-11T07:25:13.933Z,89.70
2022-12-11T07:27:41.352Z,89.11
2022-12-11T07:30:09.065Z,89.67
2022-12-11T07:32:35.631Z,88.09
2022-12-11T07:35:02.365Z,89.47
2022-12-11T07:37:28.895Z,88.69
2022-12-11T07:39:55.379Z,88.98
2022-12-11T07:42:21.859Z,88.30
2022-12-11T07:44:48.350Z,88.18
2022-12-11T07:47:14.905Z,88.39
2022-12-11T07:49:41.381Z,88.89
2022-12-11T07:52:07.874Z,87.78
2022-12-11T07:54:34.368Z,88.01
2022-12-11T07:57:01.627Z,88.81
2022-12-11T07:59:28.107Z,88.43
2022-12-11T08:01:54.653Z,88.93
2022-12-11T08:04:21.114Z,87.44
2022-12-11T08:06:47.599Z,88.77
2022-12-11T08:09:20.675Z,89.12
2022-12-11T08:11:49.736Z,87.88
2022-12-11T08:14:16.372Z,88.40
2022-12-11T08:16:42.938Z,87.84
2022-12-11T08:19:11.610Z,88.70
2022-12-11T08:21:38.301Z,88.78
2022-12-11T08:24:04.909Z,89.40
2022-12-11T08:26:31.701Z,88.14
2022-12-11T08:28:58.863Z,88.75
2022-12-11T08:31:26.214Z,88.57
2022-12-11T08:33:53.174Z,88.97
2022-12-11T08:36:21.617Z,89.64
2022-12-11T08:38:49.700Z,90.04
2022-12-11T08:41:21.984Z,89.53
2022-12-11T08:43:49.224Z,89.63
2022-12-11T08:46:15.771Z,89.17
2022-12-11T08:48:43.446Z,89.95
2022-12-11T08:51:15.837Z,90.06
2022-12-11T08:53:43.033Z,89.53
2022-12-11T08:56:15.359Z,89.73
2022-12-11T08:58:42.645Z,89.88
2022-12-11T09:01:14.556Z,89.47
2022-12-11T09:03:41.285Z,88.72
2022-12-11T09:06:10.851Z,89.19
2022-12-11T09:08:37.666Z,88.92
2022-12-11T09:11:13.613Z,89.28
2022-12-11T09:13:41.343Z,89.97
2022-12-11T09:16:10.807Z,90.09
2022-12-11T09:18:38.970Z,90.33
2022-12-11T09:21:08.816Z,90.12
2022-12-11T09:23:35.625Z,90.48
2022-12-11T09:26:09.850Z,89.25
2022-12-11T09:28:39.032Z,89.44
2022-12-11T09:31:18.225Z,88.79
2022-12-11T09:33:45.535Z,89.20
2022-12-11T09:36:12.199Z,89.96
2022-12-11T09:38:39.455Z,88.90
2022-12-11T09:41:21.142Z,88.85
2022-12-11T09:44:12.399Z,88.59
2022-12-11T09:46:40.724Z,89.01
2022-12-11T09:49:26.215Z,90.16
2022-12-11T09:52:20.158Z,89.47
2022-12-11T09:54:55.781Z,88.79
2022-12-11T09:57:43.828Z,88.15
2022-12-11T10:00:19.864Z,89.76
2022-12-11T10:03:19.666Z,88.95
2022-12-11T10:06:17.995Z,88.16
2022-12-11T10:09:11.392Z,89.53
2022-12-11T10:11:56.928Z,88.71
2022-12-11T10:14:39.254Z,88.85
2022-12-11T10:17:30.827Z,88.79
2022-12-11T10:20:05.679Z,87.75
2022-12-11T10:22:33.679Z,88.27
2022-12-11T10:25:10.726Z,88.77
2022-12-11T10:27:40.662Z,87.93
2022-12-11T10:30:25.396Z,87.94
2022-12-11T10:33:20.726Z,88.29
2022-12-11T10:35:56.245Z,88.50
2022-12-11T10:38:35.031Z,88.98
2022-12-11T10:41:02.988Z,87.77
2022-12-11T10:43:39.734Z,89.02
2022-12-11T10:46:14.292Z,88.33
2022-12-11T10:48:53.102Z,88.83
2022-12-11T10:51:22.175Z,88.24
2022-12-11T10:53:54.930Z,88.93
2022-12-11T10:56:30.465Z,87.69
2022-12-11T10:58:58.214Z,88.59
2022-12-11T11:01:27.879Z,88.33
2022-12-11T11:04:26.994Z,88.39
2022-12-11T11:07:13.991Z,88.13
2022-12-11T11:09:41.307Z,87.83
2022-12-11T11:12:23.499Z,87.71
2022-12-11T11:15:18.620Z,87.78
2022-12-11T11:17:55.885Z,88.10
2022-12-11T11:20:26.694Z,87.66
2022-12-11T11:22:59.503Z,87.25
2022-12-11T11:25:28.567Z,87.12
2022-12-11T11:27:58.509Z,87.42
2022-12-11T11:30:28.408Z,87.15
2022-12-11T11:32:57.994Z,87.19
2022-12-11T11:35:27.488Z,86.98
2022-12-11T11:38:17.832Z,86.56
2022-12-11T11:41:15.453Z,87.25
2022-12-11T11:43:48.743Z,86.88
2022-12-11T11:46:24.352Z,87.27
2022-12-11T11:49:04.097Z,86.43
2022-12-11T11:51:36.197Z,86.38
2022-12-11T11:54:25.225Z,86.53
2022-12-11T11:56:55.805Z,86.40
2022-12-11T11:59:31.982Z,86.74
2022-12-11T12:01:58.835Z,86.58
2022-12-11T12:04:31.580Z,86.18
2022-12-11T12:07:21.405Z,86.68
2022-12-11T12:09:53.868Z,86.39
2022-12-11T12:12:38.341Z,86.41
2022-12-11T12:15:33.060Z,86.31
2022-12-11T12:18:27.869Z,85.88
2022-12-11T12:21:17.070Z,86.03
2022-12-11T12:24:08.299Z,86.08
2022-12-11T12:26:44.442Z,86.08
2022-12-11T12:29:25.720Z,85.81
2022-12-11T12:32:21.433Z,86.03
2022-12-11T12:35:17.168Z,85.20
2022-12-11T12:37:52.792Z,85.37
2022-12-11T12:40:31.448Z,85.40
2022-12-11T12:43:35.270Z,85.56
2022-12-11T12:46:17.063Z,85.05
2022-12-11T12:48:45.075Z,85.68
2022-12-11T12:51:16.032Z,85.04
2022-12-11T12:53:54.379Z,85.41
2022-12-11T12:56:22.233Z,85.80
2022-12-11T12:58:48.716Z,85.74
2022-12-11T13:01:27.417Z,85.58
2022-12-11T13:04:02.074Z,85.89
2022-12-11T13:06:34.527Z,85.49
2022-12-11T13:09:22.713Z,84.96
2022-12-11T13:11:51.560Z,85.02
2022-12-11T13:14:17.991Z,85.01
2022-12-11T13:16:47.386Z,85.75
2022-12-11T13:19:22.977Z,85.62
2022-12-11T13:21:58.288Z,85.71
2022-12-11T13:24:28.085Z,85.42
2022-12-11T13:26:55.162Z,85.70
2022-12-11T13:29:37.082Z,86.04
2022-12-11T13:32:09.517Z,85.09
2022-12-11T13:34:41.582Z,85.36
2022-12-11T13:37:26.566Z,84.98
2022-12-11T13:39:53.492Z,85.63
2022-12-11T13:42:38.742Z,85.29
2022-12-11T13:45:05.559Z,85.86
2022-12-11T13:47:32.944Z,85.28
2022-12-11T13:50:14.529Z,85.53
2022-12-11T13:52:41.052Z,85.05
2022-12-11T13:55:21.750Z,85.05
2022-12-11T13:57:48.266Z,85.85
2022-12-11T14:00:25.087Z,85.34
2022-12-11T14:02:54.813Z,85.78
2022-12-11T14:05:22.204Z,86.16
2022-12-11T14:07:53.551Z,85.19
2022-12-11T14:10:20.084Z,85.32
2022-12-11T14:12:52.968Z,85.31
2022-12-11T14:15:19.727Z,85.61
2022-12-11T14:17:51.514Z,85.23
2022-12-11T14:20:22.476Z,85.47
2022-12-11T14:22:48.981Z,86.00
2022-12-11T14:25:27.027Z,85.89
2022-12-11T14:27:56.211Z,86.07
2022-12-11T14:30:26.302Z,85.47
2022-12-11T14:33:04.467Z,85.43
2022-12-11T14:35:39.484Z,85.81
2022-12-11T14:38:28.530Z,85.58
2022-12-11T14:41:01.755Z,85.58
2022-12-11T14:43:40.904Z,85.37
2022-12-11T14:46:16.687Z,86.13
2022-12-11T14:49:01.113Z,85.89
2022-12-11T14:51:34.110Z,86.10
2022-12-11T14:54:02.932Z,86.81
2022-12-11T14:56:30.214Z,86.59
2022-12-11T14:59:03.760Z,85.74
2022-12-11T15:01:35.888Z,86.38
2022-12-11T15:04:26.701Z,85.62
2022-12-11T15:06:53.250Z,85.91
2022-12-11T15:09:37.231Z,86.08
2022-12-11T15:12:13.978Z,85.61
2022-12-11T15:14:49.006Z,86.32
2022-12-11T15:17:16.021Z,86.78
2022-12-11T15:19:48.600Z,86.07
2022-12-11T15:22:17.100Z,86.21
2022-12-11T15:24:45.288Z,86.77
2022-12-11T15:27:35.316Z,87.08
2022-12-11T15:30:03.070Z,87.11
2022-12-11T15:32:30.019Z,86.88
2022-12-11T15:34:59.028Z,86.47
2022-12-11T15:37:31.502Z,86.57
2022-12-11T15:40:00.476Z,87.21
2022-12-11T15:42:36.566Z,86.70
2022-12-11T15:45:06.604Z,87.24
2022-12-11T15:47:33.382Z,86.74
2022-12-11T15:50:03.028Z,86.82
2022-12-11T15:52:29.603Z,87.31
2022-12-11T15:54:56.046Z,86.85
2022-12-11T15:57:24.514Z,87.65
2022-12-11T15:59:53.953Z,87.30
2022-12-11T16:02:20.657Z,87.76
2022-12-11T16:04:47.118Z,87.75
2022-12-11T16:07:18.388Z,87.66
2022-12-11T16:09:46.186Z,87.04
2022-12-11T16:12:12.824Z,87.66
2022-12-11T16:14:40.337Z,87.32
2022-12-11T16:17:08.324Z,87.33
2022-12-11T16:19:35.662Z,88.44
2022-12-11T16:22:02.403Z,87.41
2022-12-11T16:24:29.529Z,87.52
2022-12-11T16:26:56.062Z,87.71
2022-12-11T16:29:22.654Z,88.10
2022-12-11T16:31:49.172Z,87.12
2022-12-11T16:34:15.976Z,87.29
2022-12-11T16:36:42.511Z,88.30
2022-12-11T16:39:11.762Z,87.88
2022-12-11T16:41:38.744Z,87.56
2022-12-11T16:44:06.021Z,87.70
2022-12-11T16:46:32.535Z,88.15
2022-12-11T16:48:59.001Z,87.23
2022-12-11T16:51:25.494Z,88.04
2022-12-11T16:53:52.094Z,87.41
2022-12-11T16:56:18.670Z,87.67
2022-12-11T16:58:45.289Z,88.42
2022-12-11T17:01:14.014Z,87.62
2022-12-11T17:03:42.328Z,88.50
2022-12-11T17:06:11.546Z,87.76
2022-12-11T17:08:38.454Z,88.92
2022-12-11T17:11:06.458Z,88.68
2022-12-11T17:13:36.094Z,87.91
2022-12-11T17:16:11.379Z,87.95
2022-12-11T17:18:38.453Z,88.79
2022-12-11T17:21:17.644Z,88.22
2022-12-11T17:23:44.735Z,88.22
2022-12-11T17:26:11.309Z,88.27
2022-12-11T17:28:39.098Z,89.03
2022-12-11T17:31:08.153Z,88.91
2022-12-11T17:33:35.337Z,88.72
2022-12-11T17:36:03.680Z,88.33
2022-12-11T17:38:30.439Z,88.24
2022-12-11T17:40:57.078Z,88.26
2022-12-11T17:43:23.954Z,88.68
2022-12-11T17:45:51.929Z,88.73
2022-12-11T17:48:20.246Z,88.96
2022-12-11T17:50:47.265Z,89.05
2022-12-11T17:53:15.427Z,87.91
2022-12-11T17:55:43.269Z,88.71
2022-12-11T17:58:15.574Z,89.09
2022-12-11T18:00:44.451Z,88.91
2022-12-11T18:03:11.674Z,88.84
2022-12-11T18:05:46.509Z,88.81
2022-12-11T18:08:15.092Z,88.45
2022-12-11T18:10:41.989Z,88.73
2022-12-11T18:13:09.114Z,88.78
2022-12-11T18:15:36.011Z,89.36
2022-12-11T18:18:02.621Z,88.23
2022-12-11T18:20:31.662Z,88.91
2022-12-11T18:22:58.654Z,88.96
2022-12-11T18:25:25.475Z,89.14
2022-12-11T18:27:52.201Z,89.20
2022-12-11T18:30:18.729Z,89.36
2022-12-11T18:32:45.226Z,89.14
2022-12-11T18:35:12.197Z,89.54
2022-12-11T18:37:38.930Z,88.58
2022-12-11T18:40:06.105Z,88.85
2022-12-11T18:42:33.585Z,89.23
2022-12-11T18:45:00.779Z,89.57
2022-12-11T18:47:27.379Z,89.25
2022-12-11T18:49:53.878Z,89.20
2022-12-11T18:52:20.405Z,89.49
2022-12-11T18:54:46.867Z,89.45
2022-12-11T18:57:13.320Z,89.50
2022-12-11T18:59:39.834Z,88.95
2022-12-11T19:02:06.348Z,89.52
2022-12-11T19:04:33.009Z,89.12
2022-12-11T19:07:00.826Z,89.44
2022-12-11T19:09:27.326Z,89.28
2022-12-11T19:11:53.791Z,89.46
2022-12-11T19:14:20.345Z,89.82
2022-12-11T19:16:46.888Z,89.05
2022-12-11T19:19:17.628Z,89.37
2022-12-11T19:21:44.830Z,88.81
2022-12-11T19:24:18.755Z,89.35
2022-12-11T19:26:45.657Z,89.34
2022-12-11T19:29:20.613Z,89.34
2022-12-11T19:31:47.211Z,90.10
2022-12-11T19:34:14.633Z,89.95
2022-12-11T19:36:41.236Z,90.25
2022-12-11T19:39:12.801Z,90.17
2022-12-11T19:41:40.954Z,89.77
2022-12-11T19:44:07.842Z,90.29
2022-12-11T19:46:34.490Z,89.81
2022-12-11T19:49:01.332Z,90.25
2022-12-11T19:51:36.833Z,90.63
2022-12-11T19:54:04.488Z,89.75
2022-12-11T19:56:32.600Z,90.09
2022-12-11T19:59:01.889Z,90.78
2022-12-11T20:01:30.231Z,90.07
2022-12-11T20:04:08.892Z,90.37
2022-12-11T20:06:37.714Z,90.84
2022-12-11T20:09:06.062Z,90.15
2022-12-11T20:11:33.397Z,91.04
2022-12-11T20:13:59.909Z,90.87
2022-12-11T20:16:46.348Z,90.76
2022-12-11T20:19:13.256Z,91.29
2022-12-11T20:21:39.753Z,90.85
2022-12-11T20:24:06.629Z,90.81
2022-12-11T20:26:33.162Z,91.25
2022-12-11T20:28:59.701Z,91.27
2022-12-11T20:31:26.419Z,90.91
2022-12-11T20:33:55.602Z,90.62
2022-12-11T20:36:23.015Z,90.88
2022-12-11T20:38:50.354Z,90.86
2022-12-11T20:41:19.742Z,90.45
2022-12-11T20:43:47.212Z,90.92
2022-12-11T20:46:15.105Z,91.15
2022-12-11T20:48:43.575Z,90.92
2022-12-11T20:51:12.506Z,91.38
2022-12-11T20:53:39.693Z,91.35
2022-12-11T20:56:10.865Z,90.69
2022-12-11T20:58:37.895Z,91.47
2022-12-11T21:01:04.628Z,91.26
2022-12-11T21:03:31.376Z,91.12
2022-12-11T21:05:57.868Z,91.66
2022-12-11T21:08:24.825Z,91.47
2022-12-11T21:10:51.386Z,91.09
2022-12-11T21:13:17.882Z,92.08
2022-12-11T21:15:44.395Z,91.73
2022-12-11T21:18:10.877Z,91.58
2022-12-11T21:20:37.433Z,91.11
2022-12-11T21:23:04.141Z,91.62
2022-12-11T21:25:30.719Z,91.74
2022-12-11T21:27:57.179Z,91.35
2022-12-11T21:30:23.688Z,91.47
2022-12-11T21:32:50.199Z,91.30
2022-12-11T21:35:16.753Z,91.80
2022-12-11T21:37:43.206Z,91.50
2022-12-11T21:40:10.133Z,91.32
2022-12-11T21:42:36.605Z,91.59
2022-12-11T21:47:50.749Z,91.12
2022-12-11T21:50:17.717Z,91.24
2022-12-11T21:52:44.538Z,91.15
2022-12-11T21:55:12.280Z,91.27
2022-12-11T21:57:39.035Z,90.90
2022-12-11T22:00:05.979Z,91.05
2022-12-11T22:02:41.139Z,90.87
2022-12-11T22:05:08.416Z,91.36
2022-12-11T22:07:34.982Z,91.17
2022-12-11T22:10:01.669Z,90.82
2022-12-11T22:12:29.175Z,91.10
2022-12-11T22:14:56.264Z,90.64
2022-12-11T22:17:22.988Z,90.91
2022-12-11T22:19:49.516Z,90.80
2022-12-11T22:22:16.006Z,91.00
2022-12-11T22:24:42.461Z,90.93
2022-12-11T22:27:09.231Z,90.66
2022-12-11T22:29:35.714Z,91.00
2022-12-11T22:32:02.251Z,91.33
2022-12-11T22:34:28.714Z,90.75
2022-12-11T22:36:55.287Z,91.19
2022-12-11T22:39:22.195Z,90.63
2022-12-11T22:41:48.718Z,91.10
2022-12-11T22:44:17.354Z,91.15
2022-12-11T22:46:49.615Z,90.57
2022-12-11T22:49:16.688Z,90.70
2022-12-11T22:51:43.159Z,90.19
2022-12-11T22:54:09.747Z,90.64
2022-12-11T22:56:36.253Z,90.89
2022-12-11T22:59:02.746Z,91.21
2022-12-11T23:01:29.237Z,91.14
2022-12-11T23:03:55.750Z,91.27
2022-12-11T23:06:24.093Z,91.11
2022-12-11T23:08:51.697Z,90.64
2022-12-11T23:11:24.698Z,90.82
2022-12-11T23:13:51.707Z,91.13
2022-12-11T23:16:18.651Z,90.25
2022-12-11T23:18:45.238Z,90.74
2022-12-11T23:21:12.413Z,91.07
2022-12-11T23:23:39.249Z,90.38
2022-12-11T23:26:07.247Z,90.90
2022-12-11T23:28:34.176Z,91.69
2022-12-11T23:31:00.910Z,90.96
2022-12-11T23:33:27.735Z,91.46
2022-12-11T23:35:54.662Z,91.23
2022-12-11T23:38:21.254Z,91.21
2022-12-11T23:40:49.468Z,91.42
2022-12-11T23:43:15.996Z,91.42
2022-12-11T23:45:46.000Z,90.97
2022-12-11T23:48:13.292Z,90.95
2022-12-11T23:50:41.260Z,91.14
2022-12-11T23:53:08.401Z,91.28
2022-12-11T23:55:35.386Z,91.68
2022-12-11T23:58:01.894Z,91.62
